createdAt,value
2019-05-11T00:00:28.474Z,1005.51
2019-05-11T00:01:28.442Z,1005.51
2019-05-11T00:02:28.439Z,1005.46
2019-05-11T00:03:28.439Z,1005.45
2019-05-11T00:04:28.448Z,1005.49
2019-05-11T00:05:28.398Z,1005.54
2019-05-11T00:06:28.394Z,1005.54
2019-05-11T00:07:28.383Z,1005.55
2019-05-11T00:08:28.378Z,1005.54
2019-05-11T00:09:28.387Z,1005.56
2019-05-11T00:10:28.349Z,1005.51
2019-05-11T00:11:28.341Z,1005.55
2019-05-11T00:12:28.379Z,1005.57
2019-05-11T00:13:28.309Z,1005.50
2019-05-11T00:14:28.303Z,1005.56
2019-05-11T00:15:28.302Z,1005.56
2019-05-11T00:16:28.279Z,1005.52
2019-05-11T00:17:28.269Z,1005.51
2019-05-11T00:18:28.261Z,1005.54
2019-05-11T00:19:28.243Z,1005.59
2019-05-11T00:20:28.252Z,1005.59
2019-05-11T00:21:28.229Z,1005.64
2019-05-11T00:22:28.220Z,1005.60
2019-05-11T00:23:28.207Z,1005.60
2019-05-11T00:24:29.550Z,1005.59
2019-05-11T00:25:28.191Z,1005.54
2019-05-11T00:26:28.176Z,1005.52
2019-05-11T00:27:28.159Z,1005.52
2019-05-11T00:28:28.156Z,1005.48
2019-05-11T00:29:28.178Z,1005.51
2019-05-11T00:30:28.149Z,1005.46
2019-05-11T00:31:28.123Z,1005.50
2019-05-11T00:32:28.105Z,1005.45
2019-05-11T00:33:28.095Z,1005.48
2019-05-11T00:34:28.091Z,1005.53
2019-05-11T00:35:28.093Z,1005.51
2019-05-11T00:36:28.117Z,1005.52
2019-05-11T00:37:28.053Z,1005.59
2019-05-11T00:38:28.040Z,1005.50
2019-05-11T00:39:28.033Z,1005.51
2019-05-11T00:40:28.073Z,1005.50
2019-05-11T00:41:28.018Z,1005.39
2019-05-11T00:42:28.011Z,1005.38
2019-05-11T00:43:27.996Z,1005.38
2019-05-11T00:44:27.976Z,1005.34
2019-05-11T00:45:27.969Z,1005.33
2019-05-11T00:46:27.978Z,1005.37
2019-05-11T00:47:27.951Z,1005.31
2019-05-11T00:48:27.949Z,1005.39
2019-05-11T00:49:27.934Z,1005.36
2019-05-11T00:50:38.630Z,1005.35
2019-05-11T00:51:28.905Z,1005.35
2019-05-11T00:52:27.898Z,1005.30
2019-05-11T00:53:27.888Z,1005.34
2019-05-11T00:54:27.877Z,1005.32
2019-05-11T00:55:27.864Z,1005.30
2019-05-11T00:56:27.867Z,1005.27
2019-05-11T00:57:27.849Z,1005.35
2019-05-11T00:58:27.837Z,1005.37
2019-05-11T00:59:27.823Z,1005.38
2019-05-11T01:00:27.817Z,1005.38
2019-05-11T01:01:27.822Z,1005.37
2019-05-11T01:02:27.787Z,1005.36
2019-05-11T01:03:27.778Z,1005.33
2019-05-11T01:04:27.799Z,1005.29
2019-05-11T01:05:27.779Z,1005.30
2019-05-11T01:06:27.743Z,1005.22
2019-05-11T01:07:27.748Z,1005.26
2019-05-11T01:08:27.726Z,1005.18
2019-05-11T01:09:27.730Z,1005.11
2019-05-11T01:10:41.187Z,1005.14
2019-05-11T01:11:28.696Z,1005.12
2019-05-11T01:12:27.695Z,1005.10
2019-05-11T01:13:27.695Z,1005.06
2019-05-11T01:14:27.699Z,1005.10
2019-05-11T01:15:27.649Z,1005.07
2019-05-11T01:16:27.646Z,1005.01
2019-05-11T01:17:27.663Z,1004.95
2019-05-11T01:18:27.621Z,1004.92
2019-05-11T01:19:27.614Z,1004.96
2019-05-11T01:20:27.592Z,1004.93
2019-05-11T01:21:27.584Z,1004.95
2019-05-11T01:22:27.578Z,1004.98
2019-05-11T01:23:27.579Z,1004.98
2019-05-11T01:24:27.558Z,1005.01
2019-05-11T01:25:27.538Z,1005.00
2019-05-11T01:26:27.532Z,1005.01
2019-05-11T01:27:27.535Z,1005.02
2019-05-11T01:28:27.531Z,1005.00
2019-05-11T01:29:27.504Z,1005.01
2019-05-11T01:30:27.500Z,1005.01
2019-05-11T01:31:27.485Z,1005.06
2019-05-11T01:32:27.472Z,1005.07
2019-05-11T01:33:27.496Z,1005.08
2019-05-11T01:34:27.449Z,1005.11
2019-05-11T01:35:27.435Z,1005.17
2019-05-11T01:36:27.434Z,1005.20
2019-05-11T01:37:27.429Z,1005.19
2019-05-11T01:38:27.402Z,1005.22
2019-05-11T01:39:27.404Z,1005.22
2019-05-11T01:40:27.390Z,1005.14
2019-05-11T01:41:27.379Z,1005.18
2019-05-11T01:42:27.377Z,1005.15
2019-05-11T01:43:27.366Z,1005.10
2019-05-11T01:44:27.349Z,1005.11
2019-05-11T01:45:27.332Z,1005.09
2019-05-11T01:46:27.318Z,1005.11
2019-05-11T01:47:27.304Z,1005.06
2019-05-11T01:48:27.305Z,1005.06
2019-05-11T01:49:27.313Z,1005.08
2019-05-11T01:50:27.280Z,1005.08
2019-05-11T01:51:27.272Z,1005.07
2019-05-11T01:52:27.254Z,1005.08
2019-05-11T01:53:27.244Z,1005.17
2019-05-11T01:54:27.239Z,1005.09
2019-05-11T01:55:27.254Z,1005.12
2019-05-11T01:56:27.213Z,1005.11
2019-05-11T01:57:27.202Z,1005.04
2019-05-11T01:58:27.189Z,1004.96
2019-05-11T01:59:27.179Z,1004.99
2019-05-11T02:00:27.195Z,1005.04
2019-05-11T02:01:27.161Z,1004.97
2019-05-11T02:02:27.156Z,1004.99
2019-05-11T02:03:27.157Z,1004.98
2019-05-11T02:04:27.128Z,1004.96
2019-05-11T02:05:27.116Z,1004.92
2019-05-11T02:06:27.123Z,1004.92
2019-05-11T02:07:27.094Z,1004.89
2019-05-11T02:08:27.088Z,1004.88
2019-05-11T02:09:27.090Z,1004.92
2019-05-11T02:10:27.061Z,1004.86
2019-05-11T02:11:27.062Z,1004.84
2019-05-11T02:12:27.047Z,1004.85
2019-05-11T02:13:27.034Z,1004.84
2019-05-11T02:14:27.033Z,1004.83
2019-05-11T02:15:27.016Z,1004.84
2019-05-11T02:16:27.020Z,1004.80
2019-05-11T02:17:26.982Z,1004.75
2019-05-11T02:18:26.974Z,1004.76
2019-05-11T02:19:26.970Z,1004.75
2019-05-11T02:20:26.976Z,1004.73
2019-05-11T02:21:26.956Z,1004.74
2019-05-11T02:22:26.935Z,1004.74
2019-05-11T02:23:26.924Z,1004.73
2019-05-11T02:24:26.907Z,1004.74
2019-05-11T02:25:26.899Z,1004.70
2019-05-11T02:26:26.912Z,1004.70
2019-05-11T02:27:26.880Z,1004.75
2019-05-11T02:28:26.865Z,1004.72
2019-05-11T02:29:26.852Z,1004.72
2019-05-11T02:30:26.860Z,1004.78
2019-05-11T02:31:26.831Z,1004.76
2019-05-11T02:32:26.846Z,1004.76
2019-05-11T02:33:26.824Z,1004.73
2019-05-11T02:34:26.806Z,1004.70
2019-05-11T02:35:26.811Z,1004.73
2019-05-11T02:36:26.778Z,1004.71
2019-05-11T02:37:26.783Z,1004.66
2019-05-11T02:38:26.771Z,1004.67
2019-05-11T02:39:26.747Z,1004.72
2019-05-11T02:40:26.739Z,1004.81
2019-05-11T02:41:36.337Z,1004.80
2019-05-11T02:42:27.729Z,1004.79
2019-05-11T02:43:26.699Z,1004.79
2019-05-11T02:44:26.699Z,1004.79
2019-05-11T02:45:26.682Z,1004.75
2019-05-11T02:46:26.696Z,1004.73
2019-05-11T02:47:26.678Z,1004.68
2019-05-11T02:48:26.651Z,1004.76
2019-05-11T02:49:28.177Z,1004.68
2019-05-11T02:50:26.631Z,1004.76
2019-05-11T02:51:26.624Z,1004.77
2019-05-11T02:52:26.627Z,1004.82
2019-05-11T02:53:26.599Z,1004.81
2019-05-11T02:54:26.592Z,1004.89
2019-05-11T02:55:26.589Z,1004.81
2019-05-11T02:56:26.561Z,1004.88
2019-05-11T02:57:26.559Z,1004.86
2019-05-11T02:58:26.540Z,1004.95
2019-05-11T02:59:29.863Z,1004.95
2019-05-11T03:00:26.550Z,1004.94
2019-05-11T03:01:26.500Z,1004.96
2019-05-11T03:02:26.502Z,1004.96
2019-05-11T03:03:26.479Z,1004.95
2019-05-11T03:04:26.478Z,1004.94
2019-05-11T03:05:26.472Z,1004.97
2019-05-11T03:06:26.477Z,1004.99
2019-05-11T03:07:26.456Z,1004.98
2019-05-11T03:08:26.437Z,1005.03
2019-05-11T03:09:26.417Z,1005.01
2019-05-11T03:10:26.413Z,1005.04
2019-05-11T03:11:26.396Z,1004.99
2019-05-11T03:12:26.415Z,1004.99
2019-05-11T03:13:26.378Z,1004.94
2019-05-11T03:14:26.365Z,1004.97
2019-05-11T03:15:26.358Z,1004.95
2019-05-11T03:16:26.349Z,1005.01
2019-05-11T03:17:26.339Z,1005.08
2019-05-11T03:18:26.356Z,1005.04
2019-05-11T03:19:26.318Z,1005.00
2019-05-11T03:20:26.297Z,1005.09
2019-05-11T03:21:26.293Z,1005.06
2019-05-11T03:22:26.279Z,1005.14
2019-05-11T03:23:26.285Z,1005.13
2019-05-11T03:24:26.259Z,1005.15
2019-05-11T03:25:26.257Z,1005.13
2019-05-11T03:26:26.246Z,1005.15
2019-05-11T03:27:26.245Z,1005.08
2019-05-11T03:28:26.237Z,1005.19
2019-05-11T03:29:26.206Z,1005.21
2019-05-11T03:30:26.215Z,1005.20
2019-05-11T03:31:26.198Z,1005.31
2019-05-11T03:32:26.169Z,1005.21
2019-05-11T03:33:26.176Z,1005.18
2019-05-11T03:34:26.147Z,1005.15
2019-05-11T03:35:26.180Z,1005.16
2019-05-11T03:36:26.153Z,1005.19
2019-05-11T03:37:26.121Z,1005.20
2019-05-11T03:38:26.120Z,1005.22
2019-05-11T03:39:26.139Z,1005.17
2019-05-11T03:40:26.084Z,1005.20
2019-05-11T03:41:26.077Z,1005.19
2019-05-11T03:42:26.062Z,1005.18
2019-05-11T03:43:26.062Z,1005.23
2019-05-11T03:44:26.049Z,1005.19
2019-05-11T03:45:26.038Z,1005.24
2019-05-11T03:46:26.023Z,1005.23
2019-05-11T03:47:26.012Z,1005.20
2019-05-11T03:48:26.020Z,1005.24
2019-05-11T03:49:25.989Z,1005.15
2019-05-11T03:50:25.990Z,1005.18
2019-05-11T03:51:25.985Z,1005.10
2019-05-11T03:52:25.951Z,1005.18
2019-05-11T03:53:25.952Z,1005.12
2019-05-11T03:54:25.942Z,1005.16
2019-05-11T03:55:25.927Z,1005.15
2019-05-11T03:56:25.917Z,1005.15
2019-05-11T03:57:25.923Z,1005.15
2019-05-11T03:58:26.894Z,1005.17
2019-05-11T03:59:25.895Z,1005.20
2019-05-11T04:00:25.869Z,1005.20
2019-05-11T04:01:25.854Z,1005.08
2019-05-11T04:02:25.852Z,1005.08
2019-05-11T04:03:25.856Z,1005.08
2019-05-11T04:04:25.846Z,1005.11
2019-05-11T04:05:25.815Z,1005.12
2019-05-11T04:06:25.804Z,1005.12
2019-05-11T04:07:25.798Z,1005.13
2019-05-11T04:08:25.791Z,1005.19
2019-05-11T04:09:25.798Z,1005.23
2019-05-11T04:10:25.957Z,1005.25
2019-05-11T04:11:25.759Z,1005.28
2019-05-11T04:12:34.668Z,1005.21
2019-05-11T04:13:26.727Z,1005.30
2019-05-11T04:14:25.739Z,1005.30
2019-05-11T04:15:25.712Z,1005.27
2019-05-11T04:16:25.704Z,1005.33
2019-05-11T04:17:25.690Z,1005.33
2019-05-11T04:18:25.678Z,1005.31
2019-05-11T04:19:25.661Z,1005.37
2019-05-11T04:20:25.690Z,1005.34
2019-05-11T04:21:25.671Z,1005.34
2019-05-11T04:22:25.639Z,1005.26
2019-05-11T04:23:25.647Z,1005.31
2019-05-11T04:24:25.616Z,1005.28
2019-05-11T04:25:25.629Z,1005.34
2019-05-11T04:26:25.609Z,1005.26
2019-05-11T04:27:25.580Z,1005.29
2019-05-11T04:28:25.574Z,1005.26
2019-05-11T04:29:25.567Z,1005.26
2019-05-11T04:30:25.552Z,1005.30
2019-05-11T04:31:25.562Z,1005.27
2019-05-11T04:32:25.539Z,1005.25
2019-05-11T04:33:25.519Z,1005.24
2019-05-11T04:34:25.518Z,1005.22
2019-05-11T04:35:25.513Z,1005.24
2019-05-11T04:36:25.499Z,1005.22
2019-05-11T04:37:25.476Z,1005.21
2019-05-11T04:38:25.473Z,1005.25
2019-05-11T04:39:25.459Z,1005.19
2019-05-11T04:40:25.451Z,1005.13
2019-05-11T04:41:25.458Z,1005.16
2019-05-11T04:42:25.423Z,1005.17
2019-05-11T04:43:25.482Z,1005.13
2019-05-11T04:44:25.397Z,1005.15
2019-05-11T04:45:25.389Z,1005.10
2019-05-11T04:46:25.392Z,1005.21
2019-05-11T04:47:25.370Z,1005.17
2019-05-11T04:48:25.418Z,1005.20
2019-05-11T04:49:25.368Z,1005.20
2019-05-11T04:50:25.465Z,1005.17
2019-05-11T04:51:25.364Z,1005.22
2019-05-11T04:52:25.331Z,1005.15
2019-05-11T04:53:25.316Z,1005.17
2019-05-11T04:54:25.305Z,1005.19
2019-05-11T04:55:25.296Z,1005.21
2019-05-11T04:56:25.282Z,1005.18
2019-05-11T04:57:25.273Z,1005.22
2019-05-11T04:58:25.249Z,1005.17
2019-05-11T04:59:25.245Z,1005.18
2019-05-11T05:00:25.234Z,1005.21
2019-05-11T05:01:25.231Z,1005.20
2019-05-11T05:02:27.237Z,1005.22
2019-05-11T05:03:39.658Z,1005.18
2019-05-11T05:04:26.179Z,1005.20
2019-05-11T05:05:25.173Z,1005.20
2019-05-11T05:06:25.172Z,1005.19
2019-05-11T05:07:25.185Z,1005.21
2019-05-11T05:08:26.433Z,1005.24
2019-05-11T05:09:25.166Z,1005.19
2019-05-11T05:10:25.114Z,1005.17
2019-05-11T05:11:25.104Z,1005.15
2019-05-11T05:12:25.099Z,1005.15
2019-05-11T05:13:29.688Z,1005.15
2019-05-11T05:14:26.081Z,1005.08
2019-05-11T05:15:25.067Z,1005.16
2019-05-11T05:16:25.052Z,1005.11
2019-05-11T05:17:25.040Z,1005.17
2019-05-11T05:18:25.053Z,1005.12
2019-05-11T05:19:25.051Z,1005.22
2019-05-11T05:20:25.018Z,1005.14
2019-05-11T05:21:25.004Z,1005.12
2019-05-11T05:22:27.950Z,1005.12
2019-05-11T05:23:24.977Z,1005.09
2019-05-11T05:24:24.985Z,1005.13
2019-05-11T05:25:24.961Z,1005.14
2019-05-11T05:26:24.955Z,1005.11
2019-05-11T05:27:24.943Z,1005.10
2019-05-11T05:28:24.927Z,1005.06
2019-05-11T05:29:24.925Z,1005.12
2019-05-11T05:30:24.915Z,1005.13
2019-05-11T05:31:24.890Z,1005.08
2019-05-11T05:32:24.888Z,1005.13
2019-05-11T05:33:24.876Z,1005.18
2019-05-11T05:34:24.897Z,1005.17
2019-05-11T05:35:24.854Z,1005.19
2019-05-11T05:36:24.846Z,1005.16
2019-05-11T05:37:25.085Z,1005.15
2019-05-11T05:38:24.841Z,1005.13
2019-05-11T05:39:24.830Z,1005.14
2019-05-11T05:40:24.795Z,1005.17
2019-05-11T05:41:24.789Z,1005.16
2019-05-11T05:42:24.785Z,1005.14
2019-05-11T05:43:28.339Z,1005.21
2019-05-11T05:44:27.700Z,1005.19
2019-05-11T05:45:24.746Z,1005.13
2019-05-11T05:46:24.735Z,1005.19
2019-05-11T05:47:24.734Z,1005.09
2019-05-11T05:48:24.709Z,1005.08
2019-05-11T05:49:24.718Z,1005.08
2019-05-11T05:50:24.685Z,1005.06
2019-05-11T05:51:24.677Z,1005.05
2019-05-11T05:52:24.670Z,1005.09
2019-05-11T05:53:24.673Z,1005.00
2019-05-11T05:54:24.660Z,1005.04
2019-05-11T05:55:24.652Z,1005.12
2019-05-11T05:56:24.635Z,1005.11
2019-05-11T05:57:24.626Z,1005.04
2019-05-11T05:58:24.611Z,1005.10
2019-05-11T05:59:24.607Z,1005.06
2019-05-11T06:00:24.583Z,1005.08
2019-05-11T06:01:24.565Z,1005.09
2019-05-11T06:02:24.553Z,1005.11
2019-05-11T06:03:24.546Z,1005.15
2019-05-11T06:04:24.553Z,1005.14
2019-05-11T06:05:24.538Z,1005.14
2019-05-11T06:06:24.526Z,1005.15
2019-05-11T06:07:24.507Z,1005.12
2019-05-11T06:08:24.498Z,1005.13
2019-05-11T06:09:24.497Z,1005.13
2019-05-11T06:10:24.478Z,1005.15
2019-05-11T06:11:24.465Z,1005.15
2019-05-11T06:12:24.453Z,1005.14
2019-05-11T06:13:24.437Z,1005.22
2019-05-11T06:14:24.439Z,1005.19
2019-05-11T06:15:24.414Z,1005.17
2019-05-11T06:16:24.418Z,1005.18
2019-05-11T06:17:24.415Z,1005.17
2019-05-11T06:18:24.398Z,1005.20
2019-05-11T06:19:24.405Z,1005.19
2019-05-11T06:20:24.378Z,1005.15
2019-05-11T06:21:24.352Z,1005.22
2019-05-11T06:22:24.353Z,1005.16
2019-05-11T06:23:24.332Z,1005.25
2019-05-11T06:24:24.326Z,1005.23
2019-05-11T06:25:24.350Z,1005.26
2019-05-11T06:26:24.299Z,1005.30
2019-05-11T06:27:24.290Z,1005.31
2019-05-11T06:28:24.283Z,1005.30
2019-05-11T06:29:24.306Z,1005.25
2019-05-11T06:30:24.261Z,1005.22
2019-05-11T06:31:24.268Z,1005.20
2019-05-11T06:32:24.235Z,1005.29
2019-05-11T06:33:24.226Z,1005.22
2019-05-11T06:34:24.248Z,1005.22
2019-05-11T06:35:24.208Z,1005.19
2019-05-11T06:36:24.219Z,1005.13
2019-05-11T06:37:24.186Z,1005.16
2019-05-11T06:38:24.179Z,1005.17
2019-05-11T06:39:24.171Z,1005.15
2019-05-11T06:40:24.165Z,1005.19
2019-05-11T06:41:24.239Z,1005.19
2019-05-11T06:42:24.135Z,1005.18
2019-05-11T06:43:24.124Z,1005.23
2019-05-11T06:44:24.106Z,1005.18
2019-05-11T06:45:24.104Z,1005.23
2019-05-11T06:46:24.087Z,1005.22
2019-05-11T06:47:24.093Z,1005.17
2019-05-11T06:48:24.070Z,1005.16
2019-05-11T06:49:24.085Z,1005.22
2019-05-11T06:50:24.056Z,1005.21
2019-05-11T06:51:24.057Z,1005.28
2019-05-11T06:52:24.044Z,1005.23
2019-05-11T06:53:24.015Z,1005.21
2019-05-11T06:54:23.995Z,1005.21
2019-05-11T06:55:23.988Z,1005.25
2019-05-11T06:56:23.990Z,1005.21
2019-05-11T06:57:23.995Z,1005.26
2019-05-11T06:58:23.955Z,1005.17
2019-05-11T06:59:23.946Z,1005.25
2019-05-11T07:00:23.950Z,1005.20
2019-05-11T07:01:23.932Z,1005.23
2019-05-11T07:02:23.923Z,1005.21
2019-05-11T07:03:23.951Z,1005.24
2019-05-11T07:04:23.888Z,1005.22
2019-05-11T07:05:23.877Z,1005.23
2019-05-11T07:06:28.076Z,1005.21
2019-05-11T07:07:24.873Z,1005.19
2019-05-11T07:08:23.868Z,1005.21
2019-05-11T07:09:23.841Z,1005.16
2019-05-11T07:10:23.849Z,1005.11
2019-05-11T07:11:23.822Z,1005.22
2019-05-11T07:12:27.336Z,1005.14
2019-05-11T07:13:23.813Z,1005.11
2019-05-11T07:14:23.813Z,1005.11
2019-05-11T07:15:23.781Z,1005.18
2019-05-11T07:16:23.764Z,1005.15
2019-05-11T07:17:23.766Z,1005.19
2019-05-11T07:18:23.755Z,1005.20
2019-05-11T07:19:23.733Z,1005.13
2019-05-11T07:20:23.736Z,1005.14
2019-05-11T07:21:23.721Z,1005.12
2019-05-11T07:22:23.703Z,1005.16
2019-05-11T07:23:23.707Z,1005.14
2019-05-11T07:24:23.673Z,1005.13
2019-05-11T07:25:23.684Z,1005.08
2019-05-11T07:26:23.654Z,1005.06
2019-05-11T07:27:23.652Z,1005.03
2019-05-11T07:28:23.665Z,1005.02
2019-05-11T07:29:23.631Z,1005.09
2019-05-11T07:30:23.619Z,1005.08
2019-05-11T07:31:23.606Z,1005.05
2019-05-11T07:32:26.128Z,1005.09
2019-05-11T07:33:23.640Z,1005.13
2019-05-11T07:34:23.573Z,1005.18
2019-05-11T07:35:23.563Z,1005.09
2019-05-11T07:36:23.549Z,1005.03
2019-05-11T07:37:24.416Z,1005.13
2019-05-11T07:38:23.534Z,1005.17
2019-05-11T07:39:23.534Z,1005.08
2019-05-11T07:40:23.511Z,1005.13
2019-05-11T07:41:23.499Z,1005.19
2019-05-11T07:42:23.492Z,1005.13
2019-05-11T07:43:23.479Z,1005.14
2019-05-11T07:44:35.053Z,1005.16
2019-05-11T07:45:24.476Z,1005.07
2019-05-11T07:46:23.463Z,1005.04
2019-05-11T07:47:23.443Z,1005.07
2019-05-11T07:48:23.416Z,1005.12
2019-05-11T07:49:23.686Z,1005.22
2019-05-11T07:50:23.423Z,1005.22
2019-05-11T07:51:23.385Z,1005.05
2019-05-11T07:52:23.378Z,1005.10
2019-05-11T07:53:23.368Z,1005.15
2019-05-11T07:54:23.366Z,1005.27
2019-05-11T07:55:23.367Z,1005.27
2019-05-11T07:56:23.335Z,1005.30
2019-05-11T07:57:23.326Z,1005.16
2019-05-11T07:58:23.313Z,1005.23
2019-05-11T07:59:23.305Z,1005.21
2019-05-11T08:00:23.326Z,1005.19
2019-05-11T08:01:23.296Z,1005.20
2019-05-11T08:02:23.274Z,1005.08
2019-05-11T08:03:23.275Z,1005.10
2019-05-11T08:04:23.256Z,1005.07
2019-05-11T08:05:23.254Z,1005.05
2019-05-11T08:06:23.253Z,1005.08
2019-05-11T08:07:23.231Z,1005.12
2019-05-11T08:08:25.227Z,1005.11
2019-05-11T08:09:23.200Z,1005.15
2019-05-11T08:10:23.219Z,1005.18
2019-05-11T08:11:23.198Z,1005.20
2019-05-11T08:12:23.190Z,1005.14
2019-05-11T08:13:23.166Z,1005.16
2019-05-11T08:14:23.154Z,1005.10
2019-05-11T08:15:23.145Z,1005.22
2019-05-11T08:16:23.148Z,1005.26
2019-05-11T08:17:23.118Z,1005.07
2019-05-11T08:18:23.115Z,1005.15
2019-05-11T08:19:23.105Z,1005.23
2019-05-11T08:20:23.085Z,1004.97
2019-05-11T08:21:23.071Z,1005.10
2019-05-11T08:22:23.166Z,1005.07
2019-05-11T08:23:23.077Z,1005.20
2019-05-11T08:24:23.058Z,1005.07
2019-05-11T08:25:23.040Z,1005.13
2019-05-11T08:26:23.035Z,1005.09
2019-05-11T08:27:23.049Z,1005.18
2019-05-11T08:28:23.007Z,1005.18
2019-05-11T08:29:22.992Z,1005.04
2019-05-11T08:30:22.981Z,1005.16
2019-05-11T08:31:22.968Z,1005.01
2019-05-11T08:32:22.966Z,1005.04
2019-05-11T08:33:22.968Z,1005.04
2019-05-11T08:34:22.946Z,1005.10
2019-05-11T08:35:22.931Z,1005.08
2019-05-11T08:36:22.927Z,1005.17
2019-05-11T08:37:22.912Z,1005.29
2019-05-11T08:38:22.928Z,1005.05
2019-05-11T08:39:22.897Z,1005.10
2019-05-11T08:40:22.887Z,1005.07
2019-05-11T08:41:22.866Z,1005.23
2019-05-11T08:42:22.861Z,1005.25
2019-05-11T08:43:22.887Z,1005.15
2019-05-11T08:44:22.845Z,1005.23
2019-05-11T08:45:24.688Z,1005.07
2019-05-11T08:46:22.823Z,1004.96
2019-05-11T08:47:22.814Z,1004.95
2019-05-11T08:48:22.800Z,1004.91
2019-05-11T08:49:22.796Z,1004.94
2019-05-11T08:50:22.780Z,1004.89
2019-05-11T08:51:22.772Z,1004.91
2019-05-11T08:52:22.757Z,1004.91
2019-05-11T08:53:22.742Z,1004.93
2019-05-11T08:54:22.747Z,1004.88
2019-05-11T08:55:22.729Z,1004.93
2019-05-11T08:56:22.720Z,1004.87
2019-05-11T08:57:22.708Z,1004.83
2019-05-11T08:58:22.717Z,1004.85
2019-05-11T08:59:22.692Z,1004.91
2019-05-11T09:00:22.674Z,1004.95
2019-05-11T09:01:22.662Z,1004.99
2019-05-11T09:02:22.649Z,1004.84
2019-05-11T09:03:22.636Z,1004.87
2019-05-11T09:04:22.650Z,1004.87
2019-05-11T09:05:22.625Z,1004.85
2019-05-11T09:06:22.605Z,1004.86
2019-05-11T09:07:22.602Z,1004.82
2019-05-11T09:08:22.599Z,1004.72
2019-05-11T09:09:22.599Z,1004.86
2019-05-11T09:10:22.575Z,1004.74
2019-05-11T09:11:22.564Z,1004.78
2019-05-11T09:12:22.542Z,1004.81
2019-05-11T09:13:22.531Z,1004.78
2019-05-11T09:14:22.579Z,1004.85
2019-05-11T09:15:35.512Z,1004.82
2019-05-11T09:16:23.529Z,1004.84
2019-05-11T09:17:22.516Z,1004.77
2019-05-11T09:18:22.500Z,1004.81
2019-05-11T09:19:22.519Z,1004.87
2019-05-11T09:20:22.457Z,1004.76
2019-05-11T09:21:22.458Z,1004.86
2019-05-11T09:22:22.446Z,1004.84
2019-05-11T09:23:33.418Z,1004.91
2019-05-11T09:24:23.439Z,1004.86
2019-05-11T09:25:22.404Z,1004.79
2019-05-11T09:26:22.406Z,1005.00
2019-05-11T09:27:22.394Z,1005.01
2019-05-11T09:28:22.376Z,1004.95
2019-05-11T09:29:22.370Z,1004.87
2019-05-11T09:30:22.388Z,1004.84
2019-05-11T09:31:22.348Z,1004.83
2019-05-11T09:32:22.347Z,1004.83
2019-05-11T09:33:22.325Z,1004.67
2019-05-11T09:34:22.354Z,1004.72
2019-05-11T09:35:22.319Z,1004.68
2019-05-11T09:36:22.315Z,1004.76
2019-05-11T09:37:22.286Z,1004.78
2019-05-11T09:38:22.265Z,1004.74
2019-05-11T09:39:22.256Z,1004.75
2019-05-11T09:40:22.252Z,1004.75
2019-05-11T09:41:22.251Z,1004.78
2019-05-11T09:42:22.232Z,1004.76
2019-05-11T09:43:22.223Z,1004.81
2019-05-11T09:44:22.199Z,1004.78
2019-05-11T09:45:22.189Z,1004.79
2019-05-11T09:46:22.189Z,1004.75
2019-05-11T09:47:22.168Z,1004.76
2019-05-11T09:48:22.167Z,1004.82
2019-05-11T09:49:22.152Z,1004.80
2019-05-11T09:50:22.149Z,1004.77
2019-05-11T09:51:22.143Z,1004.83
2019-05-11T09:52:22.117Z,1004.86
2019-05-11T09:53:22.107Z,1004.78
2019-05-11T09:54:22.105Z,1004.77
2019-05-11T09:55:22.101Z,1004.77
2019-05-11T09:56:22.099Z,1004.69
2019-05-11T09:57:22.062Z,1004.68
2019-05-11T09:58:22.048Z,1004.74
2019-05-11T09:59:22.038Z,1004.67
2019-05-11T10:00:22.037Z,1004.73
2019-05-11T10:01:22.026Z,1004.63
2019-05-11T10:02:22.039Z,1004.70
2019-05-11T10:03:22.006Z,1004.66
2019-05-11T10:04:21.994Z,1004.61
2019-05-11T10:05:21.982Z,1004.67
2019-05-11T10:06:21.970Z,1004.68
2019-05-11T10:07:21.977Z,1004.65
2019-05-11T10:08:21.953Z,1004.72
2019-05-11T10:09:21.941Z,1004.72
2019-05-11T10:10:21.925Z,1004.80
2019-05-11T10:11:21.913Z,1004.69
2019-05-11T10:12:21.946Z,1004.70
2019-05-11T10:13:21.895Z,1004.72
2019-05-11T10:14:21.885Z,1004.69
2019-05-11T10:15:21.881Z,1004.79
2019-05-11T10:16:21.855Z,1004.74
2019-05-11T10:17:21.862Z,1004.77
2019-05-11T10:18:24.200Z,1004.70
2019-05-11T10:19:21.830Z,1004.69
2019-05-11T10:20:21.821Z,1004.75
2019-05-11T10:21:21.814Z,1004.68
2019-05-11T10:22:21.811Z,1004.71
2019-05-11T10:23:21.792Z,1004.76
2019-05-11T10:24:21.771Z,1004.71
2019-05-11T10:25:21.766Z,1004.73
2019-05-11T10:26:21.754Z,1004.75
2019-05-11T10:27:21.766Z,1004.78
2019-05-11T10:28:21.731Z,1004.79
2019-05-11T10:29:21.725Z,1004.78
2019-05-11T10:30:21.707Z,1004.80
2019-05-11T10:31:21.694Z,1004.71
2019-05-11T10:32:21.695Z,1004.74
2019-05-11T10:33:21.691Z,1004.80
2019-05-11T10:34:21.669Z,1004.77
2019-05-11T10:35:21.658Z,1004.76
2019-05-11T10:36:21.650Z,1004.82
2019-05-11T10:37:21.630Z,1004.77
2019-05-11T10:38:21.641Z,1004.79
2019-05-11T10:39:21.609Z,1004.78
2019-05-11T10:40:21.609Z,1004.88
2019-05-11T10:41:21.602Z,1004.79
2019-05-11T10:42:21.574Z,1004.85
2019-05-11T10:43:21.582Z,1004.76
2019-05-11T10:44:21.571Z,1004.82
2019-05-11T10:45:21.553Z,1004.81
2019-05-11T10:46:23.448Z,1004.88
2019-05-11T10:47:21.529Z,1004.85
2019-05-11T10:48:21.512Z,1004.80
2019-05-11T10:49:21.523Z,1004.82
2019-05-11T10:50:21.492Z,1004.85
2019-05-11T10:51:21.484Z,1004.75
2019-05-11T10:52:21.476Z,1004.79
2019-05-11T10:53:21.464Z,1004.82
2019-05-11T10:54:21.453Z,1004.84
2019-05-11T10:55:21.463Z,1004.77
2019-05-11T10:56:21.435Z,1004.74
2019-05-11T10:57:21.424Z,1004.68
2019-05-11T10:58:21.409Z,1004.68
2019-05-11T10:59:21.400Z,1004.67
2019-05-11T11:00:21.395Z,1004.70
2019-05-11T11:01:21.377Z,1004.67
2019-05-11T11:02:21.368Z,1004.71
2019-05-11T11:03:21.354Z,1004.70
2019-05-11T11:04:21.346Z,1004.67
2019-05-11T11:05:21.363Z,1004.69
2019-05-11T11:06:21.327Z,1004.66
2019-05-11T11:07:21.334Z,1004.61
2019-05-11T11:08:21.298Z,1004.69
2019-05-11T11:09:21.284Z,1004.64
2019-05-11T11:10:21.278Z,1004.63
2019-05-11T11:11:21.279Z,1004.63
2019-05-11T11:12:21.259Z,1004.70
2019-05-11T11:13:21.257Z,1004.58
2019-05-11T11:14:21.259Z,1004.60
2019-05-11T11:15:21.240Z,1004.62
2019-05-11T11:16:35.750Z,1004.62
2019-05-11T11:17:22.236Z,1004.66
2019-05-11T11:18:22.090Z,1004.62
2019-05-11T11:19:21.196Z,1004.60
2019-05-11T11:20:21.168Z,1004.59
2019-05-11T11:21:23.009Z,1004.54
2019-05-11T11:22:35.949Z,1004.60
2019-05-11T11:23:22.133Z,1004.59
2019-05-11T11:24:21.135Z,1004.64
2019-05-11T11:25:21.121Z,1004.61
2019-05-11T11:26:21.127Z,1004.63
2019-05-11T11:27:21.107Z,1004.65
2019-05-11T11:28:21.082Z,1004.71
2019-05-11T11:29:21.074Z,1004.72
2019-05-11T11:30:21.075Z,1004.65
2019-05-11T11:31:21.068Z,1004.65
2019-05-11T11:32:21.041Z,1004.60
2019-05-11T11:33:21.026Z,1004.72
2019-05-11T11:34:21.017Z,1004.65
2019-05-11T11:35:21.007Z,1004.65
2019-05-11T11:36:21.016Z,1004.64
2019-05-11T11:37:21.019Z,1004.62
2019-05-11T11:38:21.046Z,1004.54
2019-05-11T11:39:20.969Z,1004.67
2019-05-11T11:40:20.955Z,1004.63
2019-05-11T11:41:20.960Z,1004.57
2019-05-11T11:42:20.937Z,1004.54
2019-05-11T11:43:20.919Z,1004.57
2019-05-11T11:44:20.931Z,1004.53
2019-05-11T11:45:20.909Z,1004.58
2019-05-11T11:46:20.968Z,1004.66
2019-05-11T11:47:21.814Z,1004.57
2019-05-11T11:48:20.877Z,1004.61
2019-05-11T11:49:20.865Z,1004.58
2019-05-11T11:50:20.874Z,1004.58
2019-05-11T11:51:20.859Z,1004.62
2019-05-11T11:52:20.836Z,1004.62
2019-05-11T11:53:20.835Z,1004.60
2019-05-11T11:54:20.799Z,1004.59
2019-05-11T11:55:20.799Z,1004.58
2019-05-11T11:56:20.792Z,1004.61
2019-05-11T11:57:21.140Z,1004.55
2019-05-11T11:58:29.079Z,1004.61
2019-05-11T11:59:20.752Z,1004.60
2019-05-11T12:00:20.754Z,1004.54
2019-05-11T12:01:20.727Z,1004.62
2019-05-11T12:02:20.735Z,1004.61
2019-05-11T12:03:20.710Z,1004.63
2019-05-11T12:04:20.698Z,1004.60
2019-05-11T12:05:20.684Z,1004.55